createdAt,value
2019-04-10T00:01:59.405Z,14.17
2019-04-10T00:04:28.152Z,17.20
2019-04-10T00:07:10.575Z,13.80
2019-04-10T00:09:27.422Z,14.93
2019-04-10T00:11:56.977Z,14.53
2019-04-10T00:14:26.112Z,15.37
2019-04-10T00:16:54.450Z,15.00
2019-04-10T00:19:22.751Z,19.07
2019-04-10T00:21:51.054Z,16.27
2019-04-10T00:24:19.856Z,17.10
2019-04-10T00:26:48.195Z,16.77
2019-04-10T00:29:16.522Z,14.33
2019-04-10T00:31:44.844Z,13.83
2019-04-10T00:34:13.598Z,15.53
2019-04-10T00:36:41.872Z,12.93
2019-04-10T00:39:10.562Z,17.17
2019-04-10T00:41:38.894Z,16.03
2019-04-10T00:44:07.844Z,14.10
2019-04-10T00:46:36.127Z,15.60
2019-04-10T00:49:05.064Z,14.40
2019-04-10T00:51:33.438Z,18.67
2019-04-10T00:54:01.801Z,17.33
2019-04-10T00:56:30.081Z,16.03
2019-04-10T00:58:59.545Z,14.93
2019-04-10T01:01:27.859Z,14.07
2019-04-10T01:03:56.377Z,18.97
2019-04-10T01:06:24.837Z,14.40
2019-04-10T01:08:53.168Z,13.50
2019-04-10T01:11:21.450Z,16.60
2019-04-10T01:13:50.295Z,16.30
2019-04-10T01:16:19.551Z,13.63
2019-04-10T01:18:47.948Z,11.33
2019-04-10T01:21:16.303Z,12.63
2019-04-10T01:23:44.952Z,13.83
2019-04-10T01:26:13.271Z,16.20
2019-04-10T01:28:41.519Z,14.87
2019-04-10T01:31:10.542Z,11.17
2019-04-10T01:33:39.120Z,18.47
2019-04-10T01:36:07.419Z,12.77
2019-04-10T01:38:35.678Z,19.00
2019-04-10T01:41:03.950Z,13.00
2019-04-10T01:43:32.979Z,14.33
2019-04-10T01:46:02.085Z,14.97
2019-04-10T01:48:30.429Z,14.13
2019-04-10T01:50:59.034Z,17.03
2019-04-10T01:53:28.021Z,12.30
2019-04-10T01:55:57.521Z,15.60
2019-04-10T01:58:26.016Z,14.20
2019-04-10T02:00:56.303Z,14.77
2019-04-10T02:03:25.650Z,12.60
2019-04-10T02:05:54.714Z,12.00
2019-04-10T02:08:23.653Z,12.03
2019-04-10T02:10:52.263Z,13.93
2019-04-10T02:13:20.595Z,14.07
2019-04-10T02:15:48.898Z,12.17
2019-04-10T02:18:17.291Z,11.63
2019-04-10T02:20:45.623Z,13.80
2019-04-10T02:23:14.177Z,13.53
2019-04-10T02:25:43.168Z,14.40
2019-04-10T02:28:11.496Z,14.47
2019-04-10T02:30:43.105Z,12.67
2019-04-10T02:33:10.758Z,14.47
2019-04-10T02:35:40.080Z,13.80
2019-04-10T02:38:27.436Z,14.57
2019-04-10T02:40:39.216Z,13.60
2019-04-10T02:43:08.508Z,15.40
2019-04-10T02:45:38.764Z,14.70
2019-04-10T02:48:08.085Z,13.43
2019-04-10T02:50:37.278Z,13.77
2019-04-10T02:53:06.067Z,15.37
2019-04-10T02:55:35.848Z,14.43
2019-04-10T02:58:05.828Z,17.47
2019-04-10T03:00:35.894Z,14.63
2019-04-10T03:03:05.379Z,13.80
2019-04-10T03:05:34.656Z,15.97
2019-04-10T03:08:05.019Z,13.77
2019-04-10T03:10:41.092Z,15.40
2019-04-10T03:13:04.773Z,15.93
2019-04-10T03:15:33.789Z,17.70
2019-04-10T03:18:02.273Z,14.07
2019-04-10T03:20:30.594Z,14.07
2019-04-10T03:22:58.944Z,13.07
2019-04-10T03:25:27.208Z,17.07
2019-04-10T03:27:55.581Z,14.03
2019-04-10T03:30:23.935Z,17.13
2019-04-10T03:33:05.956Z,14.47
2019-04-10T03:35:34.620Z,12.03
2019-04-10T03:38:03.025Z,15.90
2019-04-10T03:40:31.401Z,14.90
2019-04-10T03:42:59.753Z,17.60
2019-04-10T03:45:28.572Z,14.53
2019-04-10T03:47:57.997Z,15.00
2019-04-10T03:50:26.416Z,15.33
2019-04-10T03:52:55.834Z,16.00
2019-04-10T03:55:25.068Z,16.70
2019-04-10T03:57:53.488Z,14.90
2019-04-10T04:00:22.461Z,16.37
2019-04-10T04:02:51.811Z,13.70
2019-04-10T04:05:20.385Z,13.73
2019-04-10T04:07:48.712Z,14.27
2019-04-10T04:10:17.001Z,14.80
2019-04-10T04:12:45.330Z,17.07
2019-04-10T04:15:13.661Z,13.83
2019-04-10T04:17:41.955Z,16.23
2019-04-10T04:20:10.812Z,13.43
2019-04-10T04:22:39.152Z,14.43
2019-04-10T04:25:08.579Z,14.07
2019-04-10T04:27:37.759Z,16.57
2019-04-10T04:30:09.100Z,14.13
2019-04-10T04:32:38.007Z,15.17
2019-04-10T04:35:06.444Z,17.37
2019-04-10T04:37:35.728Z,13.20
2019-04-10T04:40:05.546Z,15.37
2019-04-10T04:42:35.043Z,14.50
2019-04-10T04:45:03.501Z,13.13
2019-04-10T04:47:31.985Z,15.43
2019-04-10T04:50:01.370Z,16.57
2019-04-10T04:52:29.799Z,12.63
2019-04-10T04:54:58.070Z,12.80
2019-04-10T04:57:26.481Z,13.77
2019-04-10T04:59:54.889Z,15.40
2019-04-10T05:02:23.210Z,15.83
2019-04-10T05:04:51.565Z,17.43
2019-04-10T05:07:20.357Z,15.10
2019-04-10T05:09:48.794Z,13.63
2019-04-10T05:12:18.043Z,18.93
2019-04-10T05:14:46.398Z,16.47
2019-04-10T05:17:16.683Z,15.77
2019-04-10T05:19:44.752Z,14.40
2019-04-10T05:22:13.059Z,13.80
2019-04-10T05:24:42.425Z,16.63
2019-04-10T05:27:11.689Z,18.27
2019-04-10T05:29:40.873Z,14.47
2019-04-10T05:32:09.342Z,16.47
2019-04-10T05:34:38.358Z,19.57
2019-04-10T05:37:07.339Z,15.93
2019-04-10T05:39:43.337Z,16.73
2019-04-10T05:42:06.412Z,17.20
2019-04-10T05:44:34.765Z,18.50
2019-04-10T05:47:03.344Z,15.70
2019-04-10T05:49:31.701Z,15.27
2019-04-10T05:52:00.071Z,14.37
2019-04-10T05:54:28.324Z,18.03
2019-04-10T05:56:56.613Z,14.80
2019-04-10T05:59:24.890Z,15.60
2019-04-10T06:01:53.139Z,16.73
2019-04-10T06:04:21.494Z,15.20
2019-04-10T06:06:49.747Z,17.43
2019-04-10T06:09:18.125Z,15.43
2019-04-10T06:11:47.347Z,20.90
2019-04-10T06:14:15.824Z,15.97
2019-04-10T06:16:44.738Z,15.87
2019-04-10T06:19:13.182Z,14.97
2019-04-10T06:21:41.511Z,21.27
2019-04-10T06:24:09.853Z,19.70
2019-04-10T06:26:38.126Z,15.97
2019-04-10T06:29:06.564Z,16.40
2019-04-10T06:31:34.869Z,17.57
2019-04-10T06:34:03.214Z,16.87
2019-04-10T06:36:31.474Z,15.43
2019-04-10T06:39:00.411Z,15.83
2019-04-10T06:41:28.821Z,15.97
2019-04-10T06:43:57.265Z,18.80
2019-04-10T06:46:25.598Z,15.77
2019-04-10T06:48:53.961Z,18.90
2019-04-10T06:51:22.197Z,16.57
2019-04-10T06:54:01.835Z,18.17
2019-04-10T06:56:20.879Z,16.87
2019-04-10T06:58:49.886Z,17.73
2019-04-10T07:01:20.979Z,17.40
2019-04-10T07:03:58.676Z,18.93
2019-04-10T07:06:21.952Z,19.30
2019-04-10T07:08:51.847Z,23.83
2019-04-10T07:11:21.432Z,16.03
2019-04-10T07:13:49.102Z,17.43
2019-04-10T07:16:17.957Z,16.23
2019-04-10T07:18:49.010Z,15.40
2019-04-10T07:21:16.762Z,18.00
2019-04-10T07:23:45.149Z,17.27
2019-04-10T07:26:17.712Z,16.97
2019-04-10T07:28:45.904Z,18.50
2019-04-10T07:31:13.565Z,14.23
2019-04-10T07:33:42.567Z,15.07
2019-04-10T07:36:13.652Z,15.73
2019-04-10T07:38:41.318Z,20.97
2019-04-10T07:41:15.364Z,20.03
2019-04-10T07:43:40.580Z,16.97
2019-04-10T07:46:08.996Z,16.07
2019-04-10T07:48:37.850Z,15.33
2019-04-10T07:51:06.991Z,15.77
2019-04-10T07:53:35.330Z,16.83
2019-04-10T07:56:07.599Z,16.17
2019-04-10T07:58:33.666Z,17.77
2019-04-10T08:01:02.034Z,14.40
2019-04-10T08:03:31.155Z,20.70
2019-04-10T08:06:00.407Z,17.97
2019-04-10T08:08:29.809Z,14.80
2019-04-10T08:10:59.381Z,18.63
2019-04-10T08:13:28.786Z,16.83
2019-04-10T08:15:58.383Z,18.93
2019-04-10T08:18:27.592Z,15.53
2019-04-10T08:20:57.162Z,20.60
2019-04-10T08:23:26.007Z,21.20
2019-04-10T08:25:54.326Z,19.07
2019-04-10T08:28:22.642Z,15.03
2019-04-10T08:30:50.972Z,16.70
2019-04-10T08:33:19.576Z,14.87
2019-04-10T08:35:47.911Z,20.53
2019-04-10T08:38:17.232Z,15.47
2019-04-10T08:40:45.920Z,14.40
2019-04-10T08:43:14.238Z,18.27
2019-04-10T08:45:47.046Z,17.97
2019-04-10T08:48:13.425Z,16.57
2019-04-10T08:50:41.964Z,17.20
2019-04-10T08:53:10.297Z,18.03
2019-04-10T08:55:38.630Z,17.83
2019-04-10T08:58:06.949Z,13.90
2019-04-10T09:00:36.405Z,16.03
2019-04-10T09:03:04.860Z,13.20
2019-04-10T09:05:33.334Z,13.30
2019-04-10T09:08:02.499Z,16.50
2019-04-10T09:10:30.865Z,25.30
2019-04-10T09:13:00.051Z,15.53
2019-04-10T09:15:28.413Z,14.63
2019-04-10T09:17:57.658Z,17.43
2019-04-10T09:20:26.772Z,14.60
2019-04-10T09:23:13.946Z,13.60
2019-04-10T09:25:25.155Z,18.60
2019-04-10T09:27:53.927Z,16.20
2019-04-10T09:30:22.694Z,14.67
2019-04-10T09:32:50.994Z,21.90
2019-04-10T09:35:20.342Z,14.50
2019-04-10T09:37:48.821Z,15.43
2019-04-10T09:40:18.228Z,15.00
2019-04-10T09:42:47.894Z,17.10
2019-04-10T09:45:16.298Z,19.33
2019-04-10T09:47:45.727Z,15.03
2019-04-10T09:50:15.105Z,13.30
2019-04-10T09:52:44.046Z,15.33
2019-04-10T09:55:12.437Z,13.83
2019-04-10T09:57:40.988Z,16.07
2019-04-10T10:00:10.428Z,14.77
2019-04-10T10:02:39.839Z,12.37
2019-04-10T10:05:08.511Z,14.60
2019-04-10T10:07:36.933Z,15.20
2019-04-10T10:10:06.855Z,14.17
2019-04-10T10:12:36.329Z,15.23
2019-04-10T10:15:09.301Z,13.93
2019-04-10T10:17:39.068Z,14.73
2019-04-10T10:20:07.914Z,13.27
2019-04-10T10:22:37.039Z,17.40
2019-04-10T10:25:08.090Z,18.90
2019-04-10T10:27:36.509Z,14.10
2019-04-10T10:30:09.353Z,14.63
2019-04-10T10:32:37.935Z,14.03
2019-04-10T10:35:09.290Z,16.17
2019-04-10T10:37:38.718Z,11.63
2019-04-10T10:40:08.860Z,13.63
2019-04-10T10:42:39.572Z,14.33
2019-04-10T10:45:08.494Z,12.80
2019-04-10T10:47:37.830Z,13.10
2019-04-10T10:50:06.738Z,13.60
2019-04-10T10:52:35.435Z,11.73
2019-04-10T10:55:05.361Z,11.47
2019-04-10T10:57:33.778Z,12.17
2019-04-10T11:00:02.178Z,12.10
2019-04-10T11:02:31.614Z,13.07
2019-04-10T11:07:31.309Z,14.53
2019-04-10T11:10:01.176Z,12.97
2019-04-10T11:12:30.484Z,10.73
2019-04-10T11:14:59.425Z,11.53
2019-04-10T11:17:28.272Z,13.53
2019-04-10T11:19:57.760Z,12.50
2019-04-10T11:22:26.507Z,11.65
2019-04-10T11:24:55.715Z,14.18
2019-04-10T11:27:25.233Z,13.40
2019-04-10T11:29:54.823Z,13.20
2019-04-10T11:32:24.010Z,12.50
2019-04-10T11:34:52.876Z,12.80
2019-04-10T11:37:31.857Z,10.60
2019-04-10T11:39:51.758Z,15.00
2019-04-10T11:42:21.158Z,10.88
2019-04-10T11:44:51.679Z,10.72
2019-04-10T11:47:23.626Z,10.63
2019-04-10T11:49:50.170Z,11.03
2019-04-10T11:52:21.543Z,13.70
2019-04-10T11:54:49.112Z,12.58
2019-04-10T11:57:19.745Z,11.73
2019-04-10T11:59:49.022Z,11.15
2019-04-10T12:02:21.124Z,11.40
2019-04-10T12:04:53.771Z,10.65
2019-04-10T12:07:52.507Z,10.53
2019-04-10T12:12:17.713Z,13.15
2019-04-10T12:14:45.974Z,10.70
2019-04-10T12:17:14.314Z,10.78
2019-04-10T12:19:42.648Z,12.45
2019-04-10T12:22:11.662Z,12.20
2019-04-10T12:24:40.500Z,10.80
2019-04-10T12:27:09.170Z,11.80
2019-04-10T12:29:38.499Z,12.07
2019-04-10T12:32:06.813Z,10.03
2019-04-10T12:34:36.112Z,9.43
2019-04-10T12:37:04.479Z,11.20
2019-04-10T12:39:32.749Z,11.88
2019-04-10T12:42:01.044Z,11.53
2019-04-10T12:44:29.650Z,13.55
2019-04-10T12:46:58.014Z,11.22
2019-04-10T12:49:26.309Z,10.48
2019-04-10T12:51:54.655Z,10.20
2019-04-10T12:54:23.763Z,11.60
2019-04-10T12:56:52.623Z,12.23
2019-04-10T12:59:21.546Z,10.85
2019-04-10T13:01:50.924Z,9.43
2019-04-10T13:04:20.824Z,12.10
2019-04-10T13:06:52.285Z,9.60
2019-04-10T13:09:19.869Z,9.53
2019-04-10T13:11:48.954Z,9.35
2019-04-10T13:14:17.354Z,8.78
2019-04-10T13:16:45.613Z,9.18
2019-04-10T13:19:13.901Z,8.90
2019-04-10T13:21:42.476Z,10.45
2019-04-10T13:24:11.105Z,10.45
2019-04-10T13:26:39.773Z,10.00
2019-04-10T13:29:08.204Z,8.78
2019-04-10T13:31:37.311Z,8.60
2019-04-10T13:34:05.858Z,9.93
2019-04-10T13:36:34.146Z,8.93
2019-04-10T13:39:02.488Z,9.28
2019-04-10T13:41:30.822Z,10.55
2019-04-10T13:44:00.254Z,13.98
2019-04-10T13:46:28.967Z,12.18
2019-04-10T13:48:57.682Z,9.05
2019-04-10T13:51:26.036Z,9.23
2019-04-10T13:53:55.212Z,10.23
2019-04-10T13:56:23.627Z,10.10
2019-04-10T13:58:52.982Z,9.23
2019-04-10T14:01:29.397Z,10.30
2019-04-10T14:03:58.585Z,9.50
2019-04-10T14:06:27.525Z,9.55
2019-04-10T14:09:13.097Z,11.60
2019-04-10T14:11:26.872Z,9.65
2019-04-10T14:13:56.005Z,9.75
2019-04-10T14:16:24.463Z,10.60
2019-04-10T14:18:52.980Z,11.25
2019-04-10T14:21:21.299Z,10.28
2019-04-10T14:23:49.735Z,10.32
2019-04-10T14:26:45.894Z,9.68
2019-04-10T14:29:07.227Z,10.13
2019-04-10T14:31:37.375Z,14.95
2019-04-10T14:34:06.571Z,10.90
2019-04-10T14:36:35.924Z,10.32
2019-04-10T14:39:13.235Z,11.48
2019-04-10T14:41:38.025Z,9.90
2019-04-10T14:44:06.397Z,9.45
2019-04-10T14:46:35.944Z,10.85
2019-04-10T14:49:04.864Z,10.45
2019-04-10T14:51:33.255Z,10.25
2019-04-10T14:54:01.777Z,10.15
2019-04-10T14:56:30.468Z,10.88
2019-04-10T14:58:59.738Z,11.18
2019-04-10T15:01:30.182Z,10.08
2019-04-10T15:03:58.569Z,11.93
2019-04-10T15:06:26.904Z,10.75
2019-04-10T15:08:55.622Z,11.18
2019-04-10T15:11:24.767Z,10.70
2019-04-10T15:13:53.131Z,10.93
2019-04-10T15:16:21.440Z,11.03
2019-04-10T15:18:49.968Z,10.93
2019-04-10T15:21:18.665Z,11.28
2019-04-10T15:23:46.966Z,10.63
2019-04-10T15:26:15.503Z,10.85
2019-04-10T15:28:43.852Z,11.40
2019-04-10T15:31:12.199Z,10.25
2019-04-10T15:33:40.477Z,11.78
2019-04-10T15:36:09.445Z,12.07
2019-04-10T15:38:37.965Z,11.73
2019-04-10T15:41:06.561Z,13.65
2019-04-10T15:43:35.118Z,13.28
2019-04-10T15:46:04.278Z,12.25
2019-04-10T15:48:33.557Z,11.70
2019-04-10T15:51:02.022Z,15.60
2019-04-10T15:53:30.349Z,12.82
2019-04-10T15:55:58.644Z,13.65
2019-04-10T15:58:27.788Z,13.05
2019-04-10T16:00:57.138Z,11.28
2019-04-10T16:03:26.165Z,13.65
2019-04-10T16:05:55.562Z,12.57
2019-04-10T16:08:26.024Z,11.67
2019-04-10T16:11:05.604Z,14.87
2019-04-10T16:13:38.779Z,14.70
2019-04-10T16:16:25.499Z,12.80
2019-04-10T16:18:55.558Z,12.93
2019-04-10T16:21:24.752Z,11.83
2019-04-10T16:23:54.762Z,11.73
2019-04-10T16:26:23.082Z,14.70
2019-04-10T16:28:51.644Z,11.70
2019-04-10T16:31:20.140Z,13.33
2019-04-10T16:33:48.471Z,12.20
2019-04-10T16:36:17.165Z,12.50
2019-04-10T16:38:45.598Z,13.27
2019-04-10T16:41:13.896Z,12.47
2019-04-10T16:43:42.442Z,12.17
2019-04-10T16:46:11.190Z,13.13
2019-04-10T16:48:40.037Z,13.47
2019-04-10T16:51:08.374Z,14.57
2019-04-10T16:53:36.678Z,15.37
2019-04-10T16:56:05.261Z,13.20
2019-04-10T16:58:33.907Z,14.97
2019-04-10T17:01:02.352Z,11.50
2019-04-10T17:03:30.642Z,12.00
2019-04-10T17:05:58.984Z,11.70
2019-04-10T17:08:27.917Z,11.53
2019-04-10T17:10:56.756Z,12.40
2019-04-10T17:13:25.217Z,14.07
2019-04-10T17:15:53.582Z,14.27
2019-04-10T17:18:21.861Z,12.73
2019-04-10T17:20:51.009Z,12.40
2019-04-10T17:23:20.321Z,12.53
2019-04-10T17:25:48.863Z,11.10
2019-04-10T17:28:18.423Z,13.13
2019-04-10T17:30:46.965Z,11.70
2019-04-10T17:33:16.467Z,10.50
2019-04-10T17:35:45.555Z,12.67
2019-04-10T17:38:14.229Z,15.53
2019-04-10T17:40:48.781Z,15.67
2019-04-10T17:43:12.896Z,11.33
2019-04-10T17:45:41.312Z,11.03
2019-04-10T17:48:09.686Z,15.30
2019-04-10T17:50:39.352Z,11.40
2019-04-10T17:53:09.154Z,11.57
2019-04-10T17:55:37.756Z,10.57
2019-04-10T17:58:07.328Z,11.00
2019-04-10T18:00:37.630Z,10.47
2019-04-10T18:03:07.469Z,16.40
2019-04-10T18:05:36.978Z,14.33
2019-04-10T18:08:05.524Z,11.30
2019-04-10T18:10:43.604Z,14.23
2019-04-10T18:13:05.180Z,14.70
2019-04-10T18:15:33.608Z,13.17
2019-04-10T18:18:03.092Z,11.93
2019-04-10T18:20:31.738Z,13.20
2019-04-10T18:23:00.952Z,9.70
2019-04-10T18:25:29.777Z,12.60
2019-04-10T18:27:58.197Z,12.17
2019-04-10T18:30:26.538Z,11.37
2019-04-10T18:32:55.913Z,10.27
2019-04-10T18:35:24.774Z,10.97
2019-04-10T18:37:53.568Z,10.87
2019-04-10T18:40:21.908Z,14.00
2019-04-10T18:42:50.229Z,10.20
2019-04-10T18:45:19.602Z,13.40
2019-04-10T18:47:48.159Z,14.53
2019-04-10T18:50:16.487Z,14.57
2019-04-10T18:52:45.638Z,11.87
2019-04-10T18:55:14.251Z,10.97
2019-04-10T18:57:43.210Z,11.43
2019-04-10T19:00:15.254Z,11.00
2019-04-10T19:02:48.736Z,11.30
2019-04-10T19:05:19.399Z,11.20
2019-04-10T19:07:48.229Z,12.43
2019-04-10T19:10:17.799Z,13.00
2019-04-10T19:12:46.263Z,17.77
2019-04-10T19:15:14.932Z,15.27
2019-04-10T19:17:43.480Z,14.50
2019-04-10T19:20:11.865Z,13.37
2019-04-10T19:22:40.206Z,13.63
2019-04-10T19:25:08.550Z,14.07
2019-04-10T19:27:37.098Z,14.93
2019-04-10T19:30:08.160Z,12.23
2019-04-10T19:32:37.462Z,12.30
2019-04-10T19:35:07.003Z,12.53
2019-04-10T19:37:36.626Z,11.73
2019-04-10T19:40:07.023Z,9.53
2019-04-10T19:42:35.661Z,12.70
2019-04-10T19:45:08.074Z,11.03
2019-04-10T19:47:37.267Z,10.00
2019-04-10T19:50:05.736Z,9.47
2019-04-10T19:52:34.002Z,11.63
2019-04-10T19:55:03.285Z,12.47
2019-04-10T19:57:31.722Z,12.90
2019-04-10T20:00:00.061Z,10.03
2019-04-10T20:02:28.498Z,10.00
2019-04-10T20:04:57.073Z,12.67
2019-04-10T20:07:25.334Z,11.27
2019-04-10T20:09:54.713Z,14.93
2019-04-10T20:12:23.205Z,10.07
2019-04-10T20:14:51.519Z,12.90
2019-04-10T20:17:19.869Z,10.67
2019-04-10T20:19:48.892Z,11.73
2019-04-10T20:22:17.223Z,10.87
2019-04-10T20:24:45.534Z,12.50
2019-04-10T20:27:14.113Z,11.40
2019-04-10T20:29:43.425Z,12.20
2019-04-10T20:32:12.721Z,10.27
2019-04-10T20:34:41.038Z,15.53
2019-04-10T20:37:10.338Z,13.30
2019-04-10T20:39:39.323Z,12.83
2019-04-10T20:42:07.814Z,15.10
2019-04-10T20:44:36.597Z,12.03
2019-04-10T20:47:04.964Z,12.93
2019-04-10T20:49:34.262Z,11.90
2019-04-10T20:52:02.593Z,11.97
2019-04-10T20:54:30.934Z,12.83
2019-04-10T20:56:59.288Z,12.87
2019-04-10T20:59:28.619Z,12.03
2019-04-10T21:01:57.789Z,12.10
2019-04-10T21:04:26.203Z,12.57
2019-04-10T21:06:54.573Z,12.27
2019-04-10T21:09:23.605Z,10.97
2019-04-10T21:12:02.161Z,12.47
2019-04-10T21:14:23.216Z,16.87
2019-04-10T21:16:51.932Z,14.50
2019-04-10T21:19:20.658Z,13.87
2019-04-10T21:21:49.082Z,12.17
2019-04-10T21:24:17.378Z,14.07
2019-04-10T21:26:46.452Z,12.87
2019-04-10T21:29:16.452Z,13.87
2019-04-10T21:31:59.022Z,13.80
2019-04-10T21:34:32.522Z,12.20
2019-04-10T21:37:01.764Z,11.90
2019-04-10T21:39:30.257Z,14.17
2019-04-10T21:42:11.106Z,15.43
2019-04-10T21:44:28.946Z,16.83
2019-04-10T21:46:57.317Z,17.47
2019-04-10T21:49:26.168Z,13.93
2019-04-10T21:51:55.713Z,13.53
2019-04-10T21:54:24.746Z,15.33
2019-04-10T21:56:53.531Z,13.00
2019-04-10T21:59:22.650Z,15.80
2019-04-10T22:01:51.124Z,16.97
2019-04-10T22:04:19.478Z,13.47
2019-04-10T22:06:49.524Z,14.40
2019-04-10T22:09:34.914Z,13.17
2019-04-10T22:12:05.772Z,14.10
2019-04-10T22:14:34.116Z,13.93
2019-04-10T22:17:03.049Z,14.30
2019-04-10T22:19:31.525Z,13.83
2019-04-10T22:22:00.022Z,13.73
2019-04-10T22:24:28.474Z,17.47
2019-04-10T22:26:56.812Z,13.27
2019-04-10T22:29:25.912Z,12.47
2019-04-10T22:31:54.550Z,13.20
2019-04-10T22:34:22.892Z,13.67
2019-04-10T22:36:51.348Z,13.73
2019-04-10T22:39:19.779Z,15.03
2019-04-10T22:41:48.401Z,14.97
2019-04-10T22:44:17.567Z,11.13
2019-04-10T22:46:46.807Z,12.63
2019-04-10T22:49:15.133Z,12.77
2019-04-10T22:51:43.988Z,11.23
2019-04-10T22:54:13.070Z,12.90
2019-04-10T22:56:42.264Z,11.90
2019-04-10T22:59:10.584Z,10.97
2019-04-10T23:01:39.794Z,11.07
2019-04-10T23:04:08.207Z,14.03
2019-04-10T23:06:37.529Z,10.43
2019-04-10T23:09:07.014Z,11.73
2019-04-10T23:11:41.123Z,11.53
2019-04-10T23:14:05.357Z,11.93
2019-04-10T23:16:33.790Z,11.33
2019-04-10T23:19:02.106Z,12.37
2019-04-10T23:21:30.481Z,12.60
2019-04-10T23:23:59.103Z,15.07
2019-04-10T23:26:27.473Z,14.47
2019-04-10T23:28:55.928Z,12.07
2019-04-10T23:31:24.326Z,11.87
2019-04-10T23:33:52.593Z,12.20
2019-04-10T23:36:20.866Z,11.37
2019-04-10T23:38:50.000Z,12.20
2019-04-10T23:41:18.358Z,12.00
2019-04-10T23:43:46.636Z,11.97
2019-04-10T23:46:14.982Z,12.33
2019-04-10T23:48:43.637Z,11.17
2019-04-10T23:51:12.866Z,9.57
2019-04-10T23:53:41.154Z,14.57
2019-04-10T23:56:09.433Z,11.37
2019-04-10T23:58:38.101Z,12.90
